Time;durP1;ratioP1;P1;durP2;ratioP2;P2;SDS_P1;SDS_P2;PMS_P1;PMS_P2;Temp;Humidity;BMP_temperature;BMP_pressure;BME280_temperature;BME280_humidity;BME280_pressure;Samples;Min_cycle;Max_cycle;Signal;HPM_P1;HPM_P2
2022/09/26 00:00:17;;;;;;;14.45;13.02;;;;;;;13.86;77.18;98399.41;4968159;28;20062;-70
2022/09/26 00:02:44;;;;;;;13.60;12.30;;;;;;;13.84;77.23;98396.03;4968055;28;20114;-70
2022/09/26 00:05:12;;;;;;;13.27;11.98;;;;;;;13.82;77.21;98394.47;4967486;28;20114;-70
2022/09/26 00:15:40;;;;;;;14.23;11.82;;;;;;;13.66;77.72;98378.94;5504336;23;20054;-70
2022/09/26 00:18:08;;;;;;;13.48;12.05;;;;;;;13.67;77.86;98375.31;4949075;29;20059;-71
2022/09/26 00:24:20;;;;;;;12.60;11.40;;;;;;;13.66;77.35;98376.28;5330542;23;20059;-70
2022/09/26 00:26:48;;;;;;;14.20;12.70;;;;;;;13.71;76.98;98369.59;4951989;29;20110;-70
2022/09/26 00:29:15;;;;;;;13.85;12.43;;;;;;;13.66;77.38;98379.78;4951878;29;20109;-70
2022/09/26 00:31:46;;;;;;;16.90;15.25;;;;;;;13.67;77.24;98372.63;4952415;29;20123;-70
2022/09/26 00:34:15;;;;;;;16.15;14.55;;;;;;;13.64;77.35;98373.75;4951933;29;20051;-70
2022/09/26 00:36:42;;;;;;;16.35;14.73;;;;;;;13.59;77.58;98386.59;4952459;29;20055;-70
2022/09/26 00:39:12;;;;;;;17.27;15.68;;;;;;;13.62;77.39;98367.69;4952373;29;20056;-70
2022/09/26 00:41:40;;;;;;;17.55;15.85;;;;;;;13.13;77.00;98293.69;4951782;29;20377;-70
2022/09/26 00:44:42;;;;;;;17.55;15.75;;;;;;;13.62;77.02;98372.19;4951887;29;20055;-70
2022/09/26 00:47:22;;;;;;;17.27;15.40;;;;;;;13.58;76.98;98370.75;4951875;29;20314;-70
2022/09/26 00:49:52;;;;;;;18.63;16.83;;;;;;;13.57;76.91;98374.38;4951844;29;20369;-70
2022/09/26 00:52:24;;;;;;;17.75;15.95;;;;;;;13.58;77.12;98368.91;5059619;23;21077;-69
2022/09/26 01:16:14;;;;;;;18.63;16.80;;;;;;;13.43;77.57;98351.56;1467257;26;20050;-70
2022/09/26 01:18:42;;;;;;;21.05;18.85;;;;;;;13.47;77.32;98351.19;4951619;29;20083;-70
2022/09/26 01:21:48;;;;;;;19.85;17.88;;;;;;;13.50;77.03;98352.75;4951130;29;20127;-70
2022/09/26 01:24:39;;;;;;;18.77;16.98;;;;;;;13.41;77.64;98348.16;4950752;29;20103;-70
2022/09/26 01:27:36;;;;;;;19.08;17.17;;;;;;;13.24;77.60;98314.09;4951165;29;20118;-71
2022/09/26 01:30:21;;;;;;;18.30;16.45;;;;;;;13.47;77.23;98343.19;4950618;29;20064;-71
2022/09/26 01:33:23;;;;;;;18.50;16.70;;;;;;;13.49;76.84;98348.38;4950079;29;20318;-70
2022/09/26 01:36:00;;;;;;;18.58;16.63;;;;;;;13.44;76.89;98347.94;4950567;29;20154;-71
2022/09/26 01:38:43;;;;;;;18.90;16.90;;;;;;;13.47;76.76;98334.38;4950741;29;20068;-71
2022/09/26 01:41:26;;;;;;;18.08;16.27;;;;;;;13.42;77.12;98333.91;4950277;29;20055;-71
2022/09/26 01:44:04;;;;;;;18.02;16.23;;;;;;;13.44;76.85;98339.94;4950569;29;20056;-71
2022/09/26 01:46:39;;;;;;;18.85;16.88;;;;;;;13.42;76.97;98329.41;4950338;29;20346;-70
2022/09/26 01:49:12;;;;;;;18.52;16.73;;;;;;;13.43;76.94;98328.44;4950228;29;20060;-71
2022/09/26 01:51:45;;;;;;;18.20;16.50;;;;;;;13.43;77.29;98315.13;4949985;29;20265;-71
2022/09/26 01:54:17;;;;;;;18.23;16.52;;;;;;;12.87;76.87;98218.72;4950887;29;20354;-71
2022/09/26 01:56:46;;;;;;;16.73;15.10;;;;;;;13.44;76.91;98313.31;4950427;29;20052;-70
2022/09/26 01:59:21;;;;;;;15.80;14.25;;;;;;;9.98;76.27;97756.50;4950322;29;20063;-71
2022/09/26 02:01:51;;;;;;;15.98;14.40;;;;;;;13.41;76.79;98301.09;4950188;29;20056;-70
2022/09/26 02:04:24;;;;;;;14.93;13.48;;;;;;;12.93;77.03;98222.69;4950170;29;20056;-71
2022/09/26 02:06:57;;;;;;;14.70;13.18;;;;;;;13.47;76.64;98303.28;4950118;29;20087;-71
2022/09/26 02:09:33;;;;;;;15.05;13.55;;;;;;;13.47;77.03;98308.59;4950459;29;20310;-71
2022/09/26 02:12:04;;;;;;;15.82;14.32;;;;;;;13.40;77.17;98299.41;4950148;29;20325;-71
2022/09/26 02:14:34;;;;;;;13.23;12.02;;;;;;;13.42;77.27;98297.47;4949904;29;20386;-71
2022/09/26 02:17:07;;;;;;;13.05;11.75;;;;;;;13.34;76.99;98275.97;4949529;29;20071;-70
2022/09/26 02:19:40;;;;;;;12.57;11.38;;;;;;;12.90;76.93;98214.97;4950055;29;20067;-71
2022/09/26 02:22:08;;;;;;;11.70;10.45;;;;;;;13.40;76.85;98288.75;4950233;29;20310;-70
2022/09/26 02:24:35;;;;;;;11.52;9.85;;;;;;;13.42;76.88;98286.00;4949614;29;20063;-71
2022/09/26 02:27:02;;;;;;;10.00;9.00;;;;;;;13.40;77.04;98291.41;4949943;29;20051;-70
2022/09/26 02:29:31;;;;;;;9.38;8.38;;;;;;;13.40;76.82;98288.75;4950126;29;20205;-70
2022/09/26 02:32:01;;;;;;;8.82;7.80;;;;;;;13.22;76.75;98270.81;4949830;29;20248;-70
2022/09/26 02:34:30;;;;;;;9.55;8.55;;;;;;;13.40;76.56;98285.25;4950310;29;20119;-70
2022/09/26 02:36:59;;;;;;;8.90;7.43;;;;;;;13.27;76.62;98250.00;4949202;29;20067;-70
2022/09/26 02:39:27;;;;;;;8.27;7.47;;;;;;;13.39;76.46;98286.22;4949635;29;20060;-70
2022/09/26 02:42:03;;;;;;;7.95;6.78;;;;;;;13.40;76.32;98277.25;4949732;29;20059;-70
2022/09/26 02:44:48;;;;;;;8.95;6.68;;;;;;;13.42;76.76;98280.66;4948613;29;20271;-71
2022/09/26 02:47:34;;;;;;;7.25;6.35;;;;;;;13.36;77.03;98282.00;4949547;29;20063;-70
2022/09/26 02:50:34;;;;;;;7.03;6.32;;;;;;;13.33;77.04;98281.41;4949290;29;20088;-70
2022/09/26 02:53:14;;;;;;;8.93;7.03;;;;;;;13.35;76.81;98275.00;4949225;29;20188;-70
2022/09/26 02:55:50;;;;;;;7.75;6.95;;;;;;;13.41;76.42;98277.13;4949072;29;20059;-71
2022/09/26 02:58:26;;;;;;;6.85;6.15;;;;;;;13.42;76.42;98280.66;4949177;29;20114;-70
2022/09/26 03:01:01;;;;;;;7.00;5.55;;;;;;;13.42;76.62;98275.34;4949480;29;20060;-70
2022/09/26 03:03:33;;;;;;;;;;;;;;;13.24;77.09;98283.03;4949702;29;20056;-70
2022/09/26 03:06:05;;;;;;;7.82;6.15;;;;;;;13.28;77.21;98284.44;4949535;29;19970;-71
2022/09/26 03:08:37;;;;;;;7.45;6.25;;;;;;;13.32;76.57;98285.03;4949130;29;20068;-70
2022/09/26 03:11:09;;;;;;;7.15;5.95;;;;;;;13.31;76.50;98286.00;4948946;29;20059;-70
2022/09/26 03:13:39;;;;;;;7.63;5.28;;;;;;;13.35;76.38;98288.28;4948923;29;20091;-70
2022/09/26 03:16:07;;;;;;;6.20;5.60;;;;;;;13.37;76.23;98289.00;4949159;29;20126;-70
2022/09/26 03:18:40;;;;;;;7.05;5.70;;;;;;;13.38;76.34;98280.06;4948952;29;20055;-71
2022/09/26 03:21:09;;;;;;;5.78;5.18;;;;;;;13.35;76.19;98285.63;4948708;29;20060;-70
2022/09/26 03:23:37;;;;;;;5.97;5.38;;;;;;;13.31;76.44;98284.19;4948551;29;20106;-70
2022/09/26 03:26:09;;;;;;;5.85;5.25;;;;;;;12.74;76.38;98194.13;4948903;29;20259;-70
2022/09/26 03:28:36;;;;;;;5.80;5.20;;;;;;;13.24;76.59;98277.69;4948632;29;20052;-70
2022/09/26 03:31:04;;;;;;;5.50;4.90;;;;;;;13.28;76.32;98272.97;4949009;29;20111;-71
2022/09/26 03:33:31;;;;;;;7.68;4.35;;;;;;;13.30;76.33;98271.88;4949198;29;20056;-70
2022/09/26 03:35:58;;;;;;;5.35;4.65;;;;;;;13.30;76.20;98265.69;4948820;29;20119;-71
2022/09/26 03:38:27;;;;;;;5.05;4.55;;;;;;;13.32;76.26;98271.75;4948684;29;20119;-71
2022/09/26 03:40:57;;;;;;;5.72;4.75;;;;;;;13.31;76.03;98270.88;4948316;29;20063;-71
2022/09/26 03:43:24;;;;;;;4.60;4.15;;;;;;;13.32;76.00;98266.41;4948682;29;20259;-70
2022/09/26 03:45:52;;;;;;;5.75;4.32;;;;;;;13.30;76.24;98266.53;4948857;29;20119;-70
2022/09/26 03:48:19;;;;;;;19.52;5.07;;;;;;;13.33;75.77;98262.78;4948906;29;20059;-70
2022/09/26 03:50:46;;;;;;;6.22;4.30;;;;;;;13.28;75.89;98262.31;4948598;29;20203;-70
2022/09/26 03:53:13;;;;;;;4.40;3.72;;;;;;;13.29;76.28;98269.34;4948425;29;20060;-70
2022/09/26 03:55:42;;;;;;;5.32;3.75;;;;;;;13.31;76.10;98267.38;4947791;29;20060;-70
2022/09/26 03:58:09;;;;;;;4.78;3.92;;;;;;;13.32;76.28;98266.41;4948390;29;20055;-70
2022/09/26 04:00:38;;;;;;;5.55;3.67;;;;;;;13.29;76.13;98258.69;4948289;29;20059;-71
2022/09/26 04:03:05;;;;;;;4.93;3.78;;;;;;;12.77;76.07;98177.91;4947997;29;20059;-71
2022/09/26 04:05:34;;;;;;;4.22;3.55;;;;;;;13.27;76.43;98258.81;4948200;29;20052;-71
2022/09/26 04:08:02;;;;;;;4.47;3.45;;;;;;;13.29;76.00;98256.03;4947986;29;20067;-71
2022/09/26 04:10:30;;;;;;;4.60;3.45;;;;;;;13.09;75.99;98231.94;4947766;29;20059;-71
2022/09/26 04:12:58;;;;;;;3.72;3.28;;;;;;;13.27;76.45;98257.97;4947941;29;20363;-71
2022/09/26 04:15:27;;;;;;;4.47;3.25;;;;;;;13.27;76.22;98264.13;4948261;29;20091;-71
2022/09/26 04:17:54;;;;;;;3.70;3.30;;;;;;;13.27;76.22;98261.47;4947716;29;20060;-70
2022/09/26 04:20:22;;;;;;;5.40;4.63;;;;;;;13.27;76.11;98265.94;4948307;29;20064;-70
2022/09/26 04:22:49;;;;;;;4.30;3.75;;;;;;;13.26;76.05;98267.78;4948082;29;20056;-70
2022/09/26 04:25:16;;;;;;;5.15;3.80;;;;;;;13.27;75.79;98255.31;4948058;29;20059;-70
2022/09/26 04:27:43;;;;;;;5.15;3.75;;;;;;;13.24;75.83;98259.06;4948078;29;20063;-70
2022/09/26 04:30:13;;;;;;;4.80;4.20;;;;;;;13.31;76.07;98259.41;4947982;29;20063;-70
2022/09/26 04:32:40;;;;;;;4.95;3.78;;;;;;;13.27;76.31;98264.13;4948532;29;20272;-70
2022/09/26 04:35:07;;;;;;;4.90;4.18;;;;;;;13.24;76.37;98263.56;4947845;29;20055;-70
2022/09/26 04:37:35;;;;;;;5.60;4.40;;;;;;;13.25;76.54;98262.56;4948427;29;20243;-71
2022/09/26 04:40:03;;;;;;;5.07;4.40;;;;;;;12.78;76.82;98208.84;4948128;29;20068;-71
2022/09/26 04:42:33;;;;;;;5.78;4.43;;;;;;;13.22;76.89;98255.69;4948034;29;20326;-69
2022/09/26 04:45:00;;;;;;;5.80;4.65;;;;;;;13.23;76.65;98249.41;4948113;29;20063;-72
2022/09/26 04:47:29;;;;;;;5.72;4.40;;;;;;;13.23;76.65;98248.56;4947974;29;20244;-70
2022/09/26 04:49:56;;;;;;;5.60;5.00;;;;;;;13.25;76.51;98246.63;4947978;29;20060;-70
2022/09/26 04:52:23;;;;;;;7.28;5.75;;;;;;;13.24;76.70;98244.91;4947910;29;20055;-69
2022/09/26 04:54:50;;;;;;;5.93;4.72;;;;;;;13.26;76.48;98240.31;4947692;29;20106;-70
2022/09/26 04:57:17;;;;;;;5.15;4.47;;;;;;;13.24;76.67;98243.09;4947725;29;20063;-70
2022/09/26 04:59:44;;;;;;;8.30;5.55;;;;;;;13.21;76.70;98237.19;4948077;29;20064;-70
2022/09/26 05:02:12;;;;;;;6.22;5.25;;;;;;;13.21;76.99;98242.53;4948031;29;20059;-70
2022/09/26 05:04:40;;;;;;;6.00;5.15;;;;;;;13.25;76.70;98251.94;4947826;29;20060;-69
2022/09/26 05:07:08;;;;;;;6.25;5.65;;;;;;;13.24;76.89;98244.91;4949633;29;20111;-69
2022/09/26 05:09:35;;;;;;;6.57;5.32;;;;;;;13.26;76.87;98245.63;4951444;29;20043;-70
2022/09/26 05:12:02;;;;;;;6.93;5.63;;;;;;;13.24;77.20;98251.09;4951257;29;20363;-70
2022/09/26 05:14:29;;;;;;;6.10;5.32;;;;;;;12.87;76.80;98185.97;4951243;29;20067;-70
2022/09/26 05:16:56;;;;;;;6.07;5.43;;;;;;;13.28;76.65;98254.34;4950929;29;20126;-70
2022/09/26 05:19:25;;;;;;;8.05;5.40;;;;;;;13.26;77.06;98253.63;4951314;29;20115;-70
2022/09/26 05:21:54;;;;;;;6.43;5.70;;;;;;;13.29;77.12;98248.03;4951240;29;20126;-70
2022/09/26 05:27:07;;;;;;;6.72;5.80;;;;;;;13.24;77.13;98251.09;4951108;29;20090;-70
2022/09/26 05:29:34;;;;;;;8.07;7.15;;;;;;;13.28;77.30;98243.69;4951010;29;20315;-70
2022/09/26 05:32:01;;;;;;;7.80;5.93;;;;;;;13.32;77.21;98250.44;4950931;29;20060;-70
2022/09/26 05:34:29;;;;;;;7.68;6.88;;;;;;;13.31;77.21;98249.59;4951058;29;20114;-70
2022/09/26 05:36:58;;;;;;;7.35;6.30;;;;;;;13.34;77.18;98253.81;4950739;29;20055;-70
2022/09/26 05:42:10;;;;;;;9.25;8.27;;;;;;;13.22;77.29;98255.69;4951387;29;20094;-69
2022/09/26 05:44:38;;;;;;;8.18;7.35;;;;;;;13.21;77.06;98254.00;4951181;29;20108;-70
2022/09/26 05:47:06;;;;;;;9.35;8.02;;;;;;;13.26;77.20;98253.63;4950593;29;20326;-70
2022/09/26 05:49:33;;;;;;;9.65;7.97;;;;;;;13.25;76.94;98251.94;4951231;29;20350;-69
2022/09/26 05:52:03;;;;;;;10.43;9.40;;;;;;;13.21;77.08;98248.69;4950710;29;20091;-69
2022/09/26 05:54:30;;;;;;;11.35;9.65;;;;;;;13.18;77.46;98251.59;4950287;29;20115;-69
2022/09/26 05:56:57;;;;;;;11.63;10.25;;;;;;;13.19;77.48;98245.31;4950664;29;20192;-70
2022/09/26 05:59:24;;;;;;;11.38;9.07;;;;;;;13.18;77.56;98250.75;4950695;29;20107;-69
2022/09/26 06:01:52;;;;;;;12.10;10.77;;;;;;;13.16;77.70;98242.91;4950249;29;20059;-70
2022/09/26 06:04:19;;;;;;;12.90;10.80;;;;;;;13.22;77.36;98247.72;4950635;29;20264;-69
2022/09/26 06:06:47;;;;;;;14.48;11.80;;;;;;;13.15;77.25;98252.69;4950205;29;20063;-69
2022/09/26 06:09:16;;;;;;;14.35;12.68;;;;;;;13.18;77.51;98251.59;4950387;29;20267;-70
2022/09/26 06:11:43;;;;;;;13.82;12.38;;;;;;;13.18;77.34;98258.72;4950257;29;20055;-70
2022/09/26 06:14:10;;;;;;;12.38;10.95;;;;;;;13.20;77.15;98256.78;4950277;29;20096;-70
2022/09/26 06:16:37;;;;;;;13.00;11.18;;;;;;;13.18;77.28;98250.75;4949767;29;20064;-70
2022/09/26 06:19:05;;;;;;;13.40;11.38;;;;;;;13.16;77.43;98251.72;4949815;29;20071;-70
2022/09/26 06:21:32;;;;;;;13.55;12.00;;;;;;;13.16;77.24;98251.72;4949936;29;20059;-70
2022/09/26 06:24:00;;;;;;;13.48;10.93;;;;;;;13.18;77.13;98253.41;4950042;29;20118;-70
2022/09/26 06:26:28;;;;;;;13.48;11.13;;;;;;;13.01;77.36;98218.41;4950025;29;20088;-69
2022/09/26 06:28:58;;;;;;;13.13;10.57;;;;;;;13.26;77.21;98266.91;4950033;29;20318;-69
2022/09/26 06:31:26;;;;;;;12.75;11.30;;;;;;;13.25;76.96;98260.75;4950041;29;20326;-70
2022/09/26 06:33:54;;;;;;;13.40;11.00;;;;;;;13.22;76.88;98255.69;4949327;29;20055;-70
2022/09/26 06:36:22;;;;;;;15.05;11.68;;;;;;;13.25;77.07;98262.56;4949514;29;20071;-69
2022/09/26 06:38:49;;;;;;;13.18;10.65;;;;;;;13.04;76.79;98219.97;4949377;29;20059;-69
2022/09/26 06:41:16;;;;;;;13.88;11.02;;;;;;;13.27;77.09;98269.47;4949710;29;20060;-69
2022/09/26 06:43:46;;;;;;;15.70;11.63;;;;;;;13.28;76.79;98271.16;4949850;29;20270;-70
2022/09/26 06:46:14;;;;;;;13.85;12.43;;;;;;;13.26;76.68;98266.91;4948134;29;20055;-69
2022/09/26 06:48:42;;;;;;;13.27;11.85;;;;;;;13.32;76.80;98264.59;4949808;29;20067;-69
2022/09/26 06:51:13;;;;;;;13.15;10.55;;;;;;;13.34;76.97;98264.47;4949540;29;20067;-69
2022/09/26 06:53:41;;;;;;;12.63;11.32;;;;;;;13.35;76.60;98269.66;4949258;29;20067;-69
2022/09/26 06:56:08;;;;;;;13.15;11.15;;;;;;;13.38;76.57;98253.44;4949233;29;20079;-69
2022/09/26 06:58:35;;;;;;;12.15;10.85;;;;;;;13.43;76.96;98269.06;4949089;29;20118;-69
2022/09/26 07:01:05;;;;;;;12.32;10.63;;;;;;;13.48;76.56;98269.50;4949190;29;20059;-70
2022/09/26 07:03:32;;;;;;;12.40;11.02;;;;;;;13.52;76.21;98267.44;4948933;29;20091;-70
2022/09/26 07:05:59;;;;;;;14.00;11.70;;;;;;;13.52;76.58;98270.94;4948703;29;20055;-70
2022/09/26 07:08:26;;;;;;;13.63;10.98;;;;;;;13.55;76.51;98269.84;4949311;29;20252;-69
2022/09/26 07:10:59;;;;;;;12.50;10.88;;;;;;;13.62;76.28;98274.50;4949155;29;20110;-70
2022/09/26 07:13:28;;;;;;;13.15;10.80;;;;;;;13.67;76.41;98274.97;4949133;29;20315;-70
2022/09/26 07:15:57;;;;;;;11.55;10.35;;;;;;;13.79;76.55;98279.25;4948436;29;20227;-71
2022/09/26 07:18:26;;;;;;;12.02;10.05;;;;;;;13.89;76.09;98281.13;4949013;29;20235;-70
2022/09/26 07:20:53;;;;;;;11.52;9.77;;;;;;;13.95;76.06;98278.78;4948995;29;20184;-70
2022/09/26 07:23:21;;;;;;;12.98;10.77;;;;;;;14.00;75.60;98283.72;4948642;29;20103;-70
2022/09/26 07:25:49;;;;;;;11.52;9.82;;;;;;;14.05;75.37;98284.16;4948449;29;20110;-70
2022/09/26 07:28:16;;;;;;;12.48;10.40;;;;;;;14.10;75.04;98280.13;4948533;29;20119;-70
2022/09/26 07:30:43;;;;;;;11.75;10.55;;;;;;;14.14;74.51;98283.38;4948151;29;20063;-70
2022/09/26 07:33:11;;;;;;;10.70;9.13;;;;;;;14.16;74.78;98289.41;4948852;29;20067;-70
2022/09/26 07:35:43;;;;;;;12.98;9.35;;;;;;;14.19;73.80;98301.63;4948103;29;20307;-69
2022/09/26 07:38:11;;;;;;;10.80;9.07;;;;;;;14.16;73.91;98291.22;4948331;29;20083;-70
2022/09/26 07:40:42;;;;;;;11.75;9.43;;;;;;;14.22;73.89;98285.38;4947951;29;20060;-70
2022/09/26 07:43:10;;;;;;;13.35;9.77;;;;;;;14.25;74.13;98287.75;4948636;29;20094;-70
2022/09/26 07:51:10;;;;;;;;;;;;;;;14.11;73.98;98280.97;4948994;29;20047;-69
2022/09/26 07:53:40;;;;;;;11.80;9.63;;;;;;;14.17;73.63;98283.09;4948417;29;19974;-69
2022/09/26 07:56:09;;;;;;;10.73;9.15;;;;;;;14.26;74.08;98279.63;4948281;29;20299;-70
2022/09/26 07:58:40;;;;;;;10.02;8.30;;;;;;;14.30;73.58;98286.38;4948170;29;20055;-69
2022/09/26 08:01:10;;;;;;;9.68;8.68;;;;;;;14.31;73.21;98274.75;4948255;29;20299;-69
2022/09/26 08:03:38;;;;;;;11.02;8.82;;;;;;;14.24;73.03;98249.63;4947796;29;20083;-70
2022/09/26 08:06:06;;;;;;;10.98;9.65;;;;;;;14.44;73.03;98274.50;4947772;29;20111;-69
2022/09/26 08:08:35;;;;;;;10.57;9.23;;;;;;;14.03;72.60;98193.72;4948413;29;20059;-69
2022/09/26 08:11:04;;;;;;;9.98;8.98;;;;;;;14.64;72.40;98280.81;4948255;29;20056;-69
2022/09/26 08:13:32;;;;;;;9.52;8.52;;;;;;;14.69;71.77;98279.44;4948104;29;20271;-69
2022/09/26 08:16:03;;;;;;;11.85;8.30;;;;;;;14.77;71.62;98265.41;4947784;29;20059;-69
2022/09/26 08:18:31;;;;;;;12.48;9.98;;;;;;;14.85;71.19;98275.41;4948005;29;20067;-69
2022/09/26 08:20:58;;;;;;;10.80;9.35;;;;;;;14.74;70.27;98285.19;4948014;29;20111;-70
2022/09/26 08:23:25;;;;;;;11.23;9.77;;;;;;;14.74;70.45;98285.19;4947617;29;20118;-70
2022/09/26 08:25:54;;;;;;;9.65;8.25;;;;;;;14.70;70.49;98286.44;4947555;29;20060;-70
2022/09/26 08:28:21;;;;;;;10.88;9.68;;;;;;;14.65;70.47;98280.69;4948011;29;20067;-70
2022/09/26 08:30:48;;;;;;;10.32;8.15;;;;;;;14.65;71.11;98283.34;4947719;29;20063;-70
2022/09/26 08:33:17;;;;;;;10.85;9.73;;;;;;;14.35;70.66;98252.19;4947769;29;20152;-70
2022/09/26 08:35:47;;;;;;;11.40;9.75;;;;;;;14.63;71.01;98287.13;4947819;29;20060;-70
2022/09/26 08:38:14;;;;;;;10.25;8.98;;;;;;;14.45;70.86;98271.72;4947911;29;20103;-70
2022/09/26 08:40:52;;;;;;;10.80;9.57;;;;;;;14.58;70.00;98295.50;4949047;29;20310;-69
2022/09/26 08:43:34;;;;;;;10.80;8.50;;;;;;;14.62;70.16;98290.78;4951782;29;20263;-70
2022/09/26 08:46:30;;;;;;;10.10;9.07;;;;;;;14.58;70.63;98298.16;4952107;29;20118;-69
2022/09/26 08:49:23;;;;;;;9.27;8.23;;;;;;;14.61;70.38;98297.09;4951664;29;20128;-69
2022/09/26 08:51:52;;;;;;;11.15;8.00;;;;;;;14.61;70.57;98295.25;4950639;29;20068;-71
2022/09/26 08:54:27;;;;;;;9.98;8.85;;;;;;;14.62;69.80;98291.63;4951614;29;20068;-70
2022/09/26 08:56:57;;;;;;;;;;;;;;;14.48;69.50;98291.09;4952054;29;20259;-69
2022/09/26 08:59:31;;;;;;;18.05;7.80;;;;;;;14.55;69.46;98292.22;4951444;29;19927;-69
2022/09/26 09:02:03;;;;;;;10.07;7.85;;;;;;;14.61;70.05;98292.59;4951342;29;20266;-70
2022/09/26 09:04:40;;;;;;;9.95;8.90;;;;;;;14.63;69.92;98300.47;4950971;29;20063;-70
2022/09/26 09:07:19;;;;;;;8.23;7.40;;;;;;;14.57;69.21;98295.59;4951226;29;20111;-69
2022/09/26 09:09:47;;;;;;;9.20;8.25;;;;;;;14.59;69.46;98297.19;4951386;29;20116;-70
2022/09/26 09:12:22;;;;;;;9.05;8.15;;;;;;;14.64;68.95;98291.47;4950967;29;20330;-69
2022/09/26 09:15:06;;;;;;;9.50;8.43;;;;;;;14.69;68.70;98286.59;4950936;29;20055;-70
2022/09/26 09:17:42;;;;;;;8.45;7.50;;;;;;;14.52;68.84;98240.03;4950471;29;20066;-69
2022/09/26 09:20:18;;;;;;;8.52;7.63;;;;;;;14.78;68.37;98279.59;4950599;29;20056;-70
2022/09/26 09:23:05;;;;;;;7.72;7.03;;;;;;;14.81;68.44;98276.66;4950927;29;20266;-69
2022/09/26 09:25:40;;;;;;;9.32;7.50;;;;;;;14.69;68.80;98246.59;4950482;29;20055;-69
2022/09/26 09:28:17;;;;;;;7.95;7.15;;;;;;;14.44;67.98;98186.56;4950582;29;20055;-69
2022/09/26 09:30:50;;;;;;;8.48;7.72;;;;;;;15.11;67.60;98254.38;4950566;29;20142;-70
2022/09/26 09:33:21;;;;;;;7.15;6.43;;;;;;;15.21;67.92;98260.56;4951047;29;20188;-70
2022/09/26 09:35:53;;;;;;;7.38;6.68;;;;;;;15.11;66.96;98227.69;4950553;29;20056;-70
2022/09/26 09:38:25;;;;;;;9.30;7.63;;;;;;;15.42;66.88;98245.22;4950478;29;20060;-70
2022/09/26 09:40:59;;;;;;;8.77;6.53;;;;;;;15.53;67.09;98257.59;4950310;29;20322;-70
2022/09/26 09:43:29;;;;;;;;;;;;;;;15.61;64.35;98255.88;4951060;29;20060;-70
2022/09/26 09:46:02;;;;;;;6.53;5.75;;;;;;;15.80;64.04;98256.88;4950287;29;19943;-70
2022/09/26 09:48:30;;;;;;;5.60;5.00;;;;;;;15.96;64.13;98257.94;4950452;29;20060;-70
2022/09/26 09:51:12;;;;;;;6.18;5.57;;;;;;;16.10;63.27;98250.47;4948933;29;20047;-70
2022/09/26 09:53:59;;;;;;;6.90;5.60;;;;;;;16.19;62.59;98244.22;4949827;29;20102;-70
2022/09/26 09:56:35;;;;;;;4.85;4.40;;;;;;;15.79;63.56;98167.03;4949941;29;20087;-70
2022/09/26 09:59:22;;;;;;;5.40;4.65;;;;;;;16.41;61.21;98251.88;4950086;29;20083;-70
2022/09/26 10:02:03;;;;;;;4.38;3.63;;;;;;;16.53;60.48;98231.13;4949715;29;20059;-70
2022/09/26 10:04:39;;;;;;;4.97;4.22;;;;;;;16.44;59.01;98216.81;4949800;29;20055;-70
2022/09/26 10:07:08;;;;;;;4.60;3.72;;;;;;;16.72;60.18;98251.59;4949956;29;20329;-70
2022/09/26 10:09:39;;;;;;;4.45;3.65;;;;;;;16.76;58.88;98245.81;4949667;29;20060;-70
2022/09/26 10:12:13;;;;;;;5.15;3.70;;;;;;;16.84;58.41;98239.69;4949678;29;20055;-70
2022/09/26 10:14:48;;;;;;;4.03;3.40;;;;;;;16.94;58.80;98235.97;4949712;29;20267;-71
2022/09/26 10:17:23;;;;;;;5.18;3.60;;;;;;;17.05;57.87;98228.69;4949510;29;20115;-70
2022/09/26 10:19:51;;;;;;;6.05;3.85;;;;;;;17.05;57.52;98234.91;4949562;29;20091;-70
2022/09/26 10:22:24;;;;;;;5.28;3.50;;;;;;;17.06;56.68;98236.59;4949626;29;20110;-70
2022/09/26 10:25:00;;;;;;;4.40;2.95;;;;;;;17.00;56.57;98238.03;4950062;29;20047;-70
2022/09/26 10:27:36;;;;;;;4.38;3.15;;;;;;;16.90;55.87;98253.31;4948467;29;20102;-71
2022/09/26 10:30:24;;;;;;;4.70;3.95;;;;;;;16.14;57.95;98139.59;4949218;29;20068;-70
2022/09/26 10:32:55;;;;;;;3.63;2.90;;;;;;;16.80;57.78;98244.50;4949402;29;20102;-70
2022/09/26 10:35:25;;;;;;;3.20;2.80;;;;;;;16.78;58.56;98237.63;4949548;29;20123;-70
2022/09/26 10:37:59;;;;;;;3.58;2.95;;;;;;;16.78;57.37;98234.94;4949431;29;20075;-70
2022/09/26 10:40:47;;;;;;;3.90;3.22;;;;;;;16.63;57.65;98210.50;4948885;29;20382;-70
2022/09/26 10:43:29;;;;;;;5.05;3.22;;;;;;;16.26;56.18;98157.09;4949121;29;20106;-71
2022/09/26 10:46:06;;;;;;;3.90;3.00;;;;;;;16.85;58.26;98226.16;4949250;29;20363;-70
2022/09/26 10:48:46;;;;;;;4.13;2.85;;;;;;;16.99;56.43;98238.19;4948701;29;20059;-71
2022/09/26 10:51:28;;;;;;;5.53;3.13;;;;;;;17.16;54.58;98228.47;4948625;29;20307;-71
2022/09/26 10:54:02;;;;;;;4.20;2.92;;;;;;;17.22;55.00;98228.75;4949182;29;20263;-70
2022/09/26 10:56:37;;;;;;;3.78;2.92;;;;;;;15.81;55.62;98004.78;4949016;29;20063;-71
2022/09/26 10:59:08;;;;;;;3.33;2.45;;;;;;;17.32;55.11;98212.59;4948840;29;20059;-70
2022/09/26 11:01:41;;;;;;;4.57;3.00;;;;;;;17.39;55.02;98228.88;4948879;29;20059;-70
2022/09/26 11:05:55;;;;;;;3.70;3.13;;;;;;;17.36;53.31;98219.31;4948112;29;20068;-70
2022/09/26 11:07:07;;;;;;;4.68;3.05;;;;;;;17.33;55.44;98208.06;4948556;29;20063;-70
2022/09/26 11:09:36;;;;;;;4.43;3.60;;;;;;;17.42;56.99;98217.84;4948290;29;20059;-71
2022/09/26 11:12:24;;;;;;;4.20;3.40;;;;;;;17.37;54.11;98215.63;4948336;29;20111;-71
2022/09/26 11:14:56;;;;;;;4.93;3.42;;;;;;;17.20;55.53;98190.56;4948593;29;20131;-71
2022/09/26 11:17:43;;;;;;;4.28;3.50;;;;;;;17.34;55.79;98218.63;4948311;29;20055;-70
2022/09/26 11:20:24;;;;;;;4.15;3.15;;;;;;;17.28;54.35;98211.22;4948621;29;20381;-71
2022/09/26 11:23:01;;;;;;;4.15;2.97;;;;;;;17.23;53.48;98217.03;4948007;29;20114;-71
2022/09/26 11:25:32;;;;;;;3.40;2.90;;;;;;;17.24;54.42;98212.50;4947756;29;20134;-71
2022/09/26 11:28:07;;;;;;;3.80;3.22;;;;;;;17.35;54.80;98206.09;4947894;29;20119;-70
2022/09/26 11:30:39;;;;;;;4.43;2.88;;;;;;;17.38;54.68;98192.38;4948009;29;20059;-70
2022/09/26 11:33:12;;;;;;;3.50;3.17;;;;;;;17.41;53.52;98195.59;4948370;29;20356;-70
2022/09/26 11:35:52;;;;;;;3.35;2.60;;;;;;;17.45;53.73;98194.28;4947193;29;20122;-71
2022/09/26 11:38:38;;;;;;;3.63;2.78;;;;;;;17.43;52.92;98196.28;4947755;29;20060;-71
2022/09/26 11:41:39;;;;;;;4.30;2.58;;;;;;;17.43;53.53;98193.59;4948197;29;20056;-70
2022/09/26 11:44:25;;;;;;;3.95;3.30;;;;;;;17.39;53.09;98188.72;4947812;29;20106;-70
2022/09/26 11:47:06;;;;;;;3.95;3.17;;;;;;;17.35;53.55;98185.50;4947626;29;20132;-70
2022/09/26 11:49:47;;;;;;;3.83;2.60;;;;;;;17.21;53.95;98154.75;4948188;29;20315;-70
2022/09/26 11:52:33;;;;;;;4.22;2.90;;;;;;;17.36;53.35;98187.19;4948110;29;20228;-70
2022/09/26 11:55:14;;;;;;;4.15;3.03;;;;;;;17.41;53.57;98178.69;4948071;29;20059;-70
2022/09/26 11:57:52;;;;;;;3.80;3.03;;;;;;;17.43;52.87;98184.72;4948051;29;20247;-70
2022/09/26 12:00:26;;;;;;;3.50;2.92;;;;;;;17.44;54.77;98203.31;4948051;29;20307;-70
2022/09/26 12:03:10;;;;;;;6.83;3.23;;;;;;;17.39;51.00;98180.66;4947703;29;20051;-69
2022/09/26 12:05:49;;;;;;;3.88;3.38;;;;;;;17.35;51.72;98185.50;4946807;29;20498;-70
2022/09/26 12:08:53;;;;;;;4.15;2.92;;;;;;;17.34;51.14;98174.94;4947530;29;20102;-70
2022/09/26 12:11:28;;;;;;;4.45;3.08;;;;;;;17.32;52.07;98183.13;4946246;29;20059;-70
2022/09/26 12:14:01;;;;;;;4.38;3.55;;;;;;;17.30;53.54;98179.78;4947383;29;20067;-70
2022/09/26 12:16:35;;;;;;;3.95;3.33;;;;;;;17.20;51.29;98177.19;4947181;29;20122;-71
2022/09/26 12:19:13;;;;;;;3.67;2.95;;;;;;;17.17;52.16;98182.81;4947358;29;20067;-70
2022/09/26 12:24:51;;;;;;;4.88;4.15;;;;;;;17.06;51.03;98169.66;4947327;29;20095;-70
2022/09/26 12:27:26;;;;;;;4.35;2.95;;;;;;;17.04;52.22;98165.47;4947880;29;20118;-71
2022/09/26 12:30:04;;;;;;;6.60;3.40;;;;;;;17.03;51.83;98163.78;4947115;29;20055;-70
2022/09/26 12:32:49;;;;;;;4.63;2.85;;;;;;;17.00;51.53;98159.56;4947474;29;20119;-71
2022/09/26 12:35:45;;;;;;;4.00;3.28;;;;;;;16.76;51.17;98125.41;4947699;29;20060;-70
2022/09/26 12:38:47;;;;;;;4.07;2.75;;;;;;;16.93;51.71;98143.28;4946339;29;20110;-71
2022/09/26 12:41:37;;;;;;;4.00;3.10;;;;;;;16.91;51.87;98150.63;4947542;29;20088;-70